Time;durP1;ratioP1;P1;durP2;ratioP2;P2;SDS_P1;SDS_P2;PMS_P1;PMS_P2;Temp;Humidity;BMP_temperature;BMP_pressure;BME280_temperature;BME280_humidity;BME280_pressure;Samples;Min_cycle;Max_cycle;Signal;HPM_P1;HPM_P2
2021/03/20 00:01:48;;;;;;;5.63;4.97;;;7.30;65.50;;;;;;5097120;28;20480;-73
2021/03/20 00:04:15;;;;;;;6.00;5.47;;;7.30;65.60;;;;;;5096069;28;20478;-72
2021/03/20 00:06:44;;;;;;;5.30;4.80;;;7.30;65.80;;;;;;5096072;28;20455;-73
2021/03/20 00:09:14;;;;;;;6.50;5.80;;;7.20;65.80;;;;;;5096148;28;20446;-73
2021/03/20 00:11:43;;;;;;;7.80;4.83;;;7.20;65.90;;;;;;5096281;28;20448;-73
2021/03/20 00:14:11;;;;;;;6.37;5.50;;;7.10;65.80;;;;;;5096383;28;20436;-73
2021/03/20 00:16:38;;;;;;;7.00;6.00;;;7.10;65.90;;;;;;5096307;28;20894;-73
2021/03/20 00:19:05;;;;;;;7.13;5.87;;;7.10;66.20;;;;;;5096199;28;20436;-73
2021/03/20 00:21:32;;;;;;;5.70;5.23;;;7.00;66.30;;;;;;5095840;28;20464;-73
2021/03/20 00:23:58;;;;;;;6.50;5.70;;;7.00;66.40;;;;;;5095790;28;20480;-72
2021/03/20 00:26:24;;;;;;;5.90;5.40;;;7.00;66.50;;;;;;5095934;28;20444;-72
2021/03/20 00:28:52;;;;;;;7.03;6.33;;;6.90;66.60;;;;;;5095932;28;20467;-72
2021/03/20 00:31:18;;;;;;;7.83;5.77;;;6.90;66.70;;;;;;5095427;28;20830;-72
2021/03/20 00:33:46;;;;;;;7.47;6.20;;;6.90;66.70;;;;;;5095898;28;20447;-72
2021/03/20 00:36:14;;;;;;;9.37;5.50;;;6.80;66.60;;;;;;5095615;28;20787;-72
2021/03/20 00:38:40;;;;;;;6.73;6.13;;;6.80;66.80;;;;;;5095598;28;20454;-72
2021/03/20 00:41:08;;;;;;;6.53;5.97;;;6.80;66.90;;;;;;5095540;28;20466;-72
2021/03/20 00:43:34;;;;;;;7.10;6.40;;;6.80;67.10;;;;;;5095025;28;20857;-72
2021/03/20 00:46:03;;;;;;;6.23;5.73;;;6.70;67.20;;;;;;5095411;28;20448;-72
2021/03/20 00:48:31;;;;;;;6.33;5.73;;;6.70;67.30;;;;;;5095270;28;20477;-73
2021/03/20 00:51:01;;;;;;;6.17;5.57;;;6.70;67.50;;;;;;5095314;28;20463;-73
2021/03/20 00:53:28;;;;;;;5.97;5.47;;;6.70;67.60;;;;;;5095289;28;20450;-73
2021/03/20 00:55:54;;;;;;;6.50;5.90;;;6.70;67.60;;;;;;5095098;28;20440;-73
2021/03/20 00:58:23;;;;;;;6.97;5.97;;;6.60;67.60;;;;;;5095167;28;20882;-72
2021/03/20 01:00:50;;;;;;;7.67;6.87;;;6.60;67.60;;;;;;5094954;28;20464;-72
2021/03/20 01:03:16;;;;;;;7.90;6.90;;;6.60;67.70;;;;;;5094970;28;20443;-73
2021/03/20 01:05:43;;;;;;;6.20;5.60;;;6.60;67.80;;;;;;5094395;28;20487;-73
2021/03/20 01:08:10;;;;;;;7.47;6.47;;;6.50;67.60;;;;;;5094969;28;20440;-72
2021/03/20 01:10:36;;;;;;;8.13;7.33;;;6.50;67.80;;;;;;5094796;28;20456;-72
2021/03/20 01:13:03;;;;;;;9.30;7.10;;;6.50;67.90;;;;;;5094514;28;21043;-72
2021/03/20 01:15:29;;;;;;;7.00;6.30;;;6.50;68.20;;;;;;5094802;28;20439;-72
2021/03/20 01:17:56;;;;;;;7.23;6.53;;;6.50;68.40;;;;;;5094695;28;20443;-72
2021/03/20 01:20:22;;;;;;;7.27;6.67;;;6.50;68.80;;;;;;5094556;28;20464;-73
2021/03/20 01:22:48;;;;;;;7.27;6.57;;;6.50;69.00;;;;;;5094612;28;20456;-73
2021/03/20 01:25:16;;;;;;;7.50;6.80;;;6.50;69.20;;;;;;5094566;28;20476;-72
2021/03/20 01:27:42;;;;;;;7.70;6.60;;;6.50;69.70;;;;;;5094173;28;21020;-73
2021/03/20 01:30:14;;;;;;;7.93;7.33;;;6.50;70.40;;;;;;5094381;28;20467;-73
2021/03/20 01:32:41;;;;;;;6.80;6.10;;;6.50;70.50;;;;;;5094501;28;20436;-72
2021/03/20 01:35:08;;;;;;;7.20;6.50;;;6.50;70.50;;;;;;5094636;28;20435;-72
2021/03/20 01:37:34;;;;;;;7.67;6.50;;;6.40;70.50;;;;;;5094359;28;20443;-72
2021/03/20 01:40:01;;;;;;;7.40;6.60;;;6.40;70.50;;;;;;5093874;28;20436;-72
2021/03/20 01:42:28;;;;;;;7.07;6.37;;;6.40;70.50;;;;;;5094541;28;20447;-72
2021/03/20 01:45:09;;;;;;;7.27;6.50;;;6.40;70.80;;;;;;5094172;28;20487;-72
2021/03/20 01:47:40;;;;;;;7.97;7.27;;;6.40;71.00;;;;;;5094198;28;20444;-72
2021/03/20 01:50:12;;;;;;;7.00;6.30;;;6.40;71.10;;;;;;5094053;28;20428;-73
2021/03/20 01:52:38;;;;;;;7.70;7.00;;;6.40;71.40;;;;;;5094176;28;20433;-72
2021/03/20 01:55:07;;;;;;;8.17;7.37;;;6.40;71.60;;;;;;5094076;28;20440;-72
2021/03/20 01:57:38;;;;;;;7.47;6.63;;;6.40;71.90;;;;;;5094054;28;20497;-72
2021/03/20 02:00:08;;;;;;;7.77;7.07;;;6.40;71.90;;;;;;5093685;28;20436;-72
2021/03/20 02:02:34;;;;;;;7.97;7.23;;;6.40;72.00;;;;;;5094021;28;20428;-72
2021/03/20 02:05:01;;;;;;;8.83;8.03;;;6.30;72.20;;;;;;5093717;28;20475;-73
2021/03/20 02:07:27;;;;;;;6.93;6.27;;;6.40;72.40;;;;;;5093923;28;20423;-72
2021/03/20 02:09:54;;;;;;;6.90;6.30;;;6.40;72.00;;;;;;5093782;28;20443;-72
2021/03/20 02:12:26;;;;;;;7.90;7.20;;;6.40;71.80;;;;;;5093832;28;20787;-72
2021/03/20 02:14:58;;;;;;;8.03;7.33;;;6.40;71.80;;;;;;5093760;28;20424;-72
2021/03/20 02:17:36;;;;;;;7.90;7.20;;;6.40;71.60;;;;;;5092846;28;20428;-72
2021/03/20 02:20:37;;;;;;;8.20;7.40;;;6.40;71.70;;;;;;5093670;28;20904;-72
2021/03/20 02:23:30;;;;;;;7.90;7.10;;;6.40;71.80;;;;;;5093639;28;20466;-72
2021/03/20 02:26:23;;;;;;;7.73;6.90;;;6.40;71.70;;;;;;5093628;28;20459;-72
2021/03/20 02:29:34;;;;;;;8.10;7.30;;;6.40;71.90;;;;;;5093668;28;20443;-73
2021/03/20 02:32:35;;;;;;;13.80;7.60;;;6.40;71.70;;;;;;5093559;28;20459;-72
2021/03/20 02:35:07;;;;;;;7.17;6.57;;;6.30;71.70;;;;;;5093211;28;20894;-72
2021/03/20 02:37:41;;;;;;;8.23;7.40;;;6.30;71.60;;;;;;5093533;28;20481;-72
2021/03/20 02:40:15;;;;;;;9.30;8.00;;;6.30;71.50;;;;;;5093545;28;20424;-72
2021/03/20 02:42:52;;;;;;;13.20;7.67;;;6.30;71.50;;;;;;5093522;28;20428;-72
2021/03/20 02:45:25;;;;;;;7.80;7.10;;;6.20;71.40;;;;;;5093440;28;20455;-72
2021/03/20 02:48:00;;;;;;;8.60;7.70;;;6.20;71.40;;;;;;5093140;28;20906;-72
2021/03/20 02:50:32;;;;;;;7.93;7.17;;;6.10;71.40;;;;;;5093102;28;21049;-72
2021/03/20 02:53:04;;;;;;;8.40;7.60;;;6.10;71.30;;;;;;5094254;28;20739;-72
2021/03/20 02:55:36;;;;;;;8.70;7.90;;;6.10;71.20;;;;;;5093454;28;20477;-72
2021/03/20 02:58:06;;;;;;;8.20;7.13;;;6.10;71.20;;;;;;5093374;28;20435;-73
2021/03/20 03:00:40;;;;;;;7.80;7.07;;;6.00;71.00;;;;;;5093378;28;20464;-72
2021/03/20 03:03:11;;;;;;;8.53;7.10;;;6.00;70.80;;;;;;5093412;28;20477;-72
2021/03/20 03:05:40;;;;;;;8.70;7.20;;;5.90;70.80;;;;;;5092970;28;20509;-72
2021/03/20 03:08:10;;;;;;;7.30;6.50;;;5.90;70.80;;;;;;5093530;28;20443;-72
2021/03/20 03:10:42;;;;;;;8.27;7.10;;;5.90;70.90;;;;;;5093203;28;20545;-72
2021/03/20 03:13:12;;;;;;;7.63;6.83;;;5.80;70.90;;;;;;5093490;28;20448;-72
2021/03/20 03:15:41;;;;;;;10.43;7.10;;;5.80;70.80;;;;;;5093107;28;20926;-72
2021/03/20 03:18:12;;;;;;;6.73;6.13;;;5.70;70.80;;;;;;5093171;28;20852;-72
2021/03/20 03:20:42;;;;;;;7.13;6.43;;;5.70;70.80;;;;;;5093059;28;20463;-72
2021/03/20 03:23:12;;;;;;;7.73;5.97;;;5.70;71.20;;;;;;5093094;28;20447;-72
2021/03/20 03:25:43;;;;;;;6.00;5.50;;;5.60;71.00;;;;;;5093099;28;20456;-72
2021/03/20 03:28:14;;;;;;;6.13;5.63;;;5.60;70.70;;;;;;5095158;28;20882;-72
2021/03/20 03:30:40;;;;;;;5.83;5.23;;;5.60;70.90;;;;;;5096757;28;20509;-72
2021/03/20 03:33:12;;;;;;;6.97;5.60;;;5.60;70.90;;;;;;5096736;28;20439;-72
2021/03/20 03:35:46;;;;;;;8.73;5.50;;;5.60;70.90;;;;;;5096774;28;20522;-72
2021/03/20 03:38:20;;;;;;;6.33;4.80;;;5.50;70.80;;;;;;5096707;28;20432;-72
2021/03/20 03:40:51;;;;;;;6.13;5.53;;;5.50;70.80;;;;;;5096618;28;20463;-72
2021/03/20 03:43:18;;;;;;;6.67;5.70;;;5.50;70.80;;;;;;5096582;28;20473;-72
2021/03/20 03:45:45;;;;;;;6.10;5.10;;;5.50;70.80;;;;;;5096450;28;20821;-73
2021/03/20 03:48:14;;;;;;;6.10;5.50;;;5.50;70.80;;;;;;5096452;28;20450;-72
2021/03/20 03:50:41;;;;;;;5.93;5.43;;;5.50;71.00;;;;;;5095940;28;20467;-72
2021/03/20 03:53:10;;;;;;;6.07;5.47;;;5.50;70.80;;;;;;5096370;28;20463;-72
2021/03/20 03:55:37;;;;;;;6.70;5.97;;;5.50;70.70;;;;;;5096538;28;20481;-72
2021/03/20 03:58:24;;;;;;;6.60;5.90;;;5.40;70.60;;;;;;5096499;28;20444;-72
2021/03/20 04:00:57;;;;;;;6.43;5.83;;;5.40;70.60;;;;;;5096426;28;20503;-73
2021/03/20 04:03:55;;;;;;;5.90;5.40;;;5.40;70.80;;;;;;5096421;28;20435;-73
2021/03/20 04:06:40;;;;;;;4.50;4.10;;;5.30;70.90;;;;;;5096046;28;20526;-72
2021/03/20 04:09:18;;;;;;;5.40;4.90;;;5.30;70.80;;;;;;5096189;28;20424;-72
2021/03/20 04:11:53;;;;;;;6.67;4.80;;;5.20;70.70;;;;;;5095974;28;20460;-72
2021/03/20 04:14:25;;;;;;;4.50;4.10;;;5.20;70.60;;;;;;5096070;28;20476;-72
2021/03/20 04:17:05;;;;;;;4.73;4.00;;;5.20;70.60;;;;;;5095636;28;20902;-72
2021/03/20 04:19:41;;;;;;;4.07;3.67;;;5.20;70.60;;;;;;5095952;28;20784;-72
2021/03/20 04:22:14;;;;;;;3.70;3.40;;;5.10;70.60;;;;;;5095836;28;20475;-72
2021/03/20 04:24:44;;;;;;;4.83;3.70;;;5.10;70.60;;;;;;5095775;28;20528;-72
2021/03/20 04:27:13;;;;;;;3.80;3.50;;;5.10;70.20;;;;;;5095845;28;20439;-72
2021/03/20 04:29:45;;;;;;;3.70;3.40;;;5.00;70.00;;;;;;5095954;28;20432;-73
2021/03/20 04:32:16;;;;;;;3.90;3.57;;;5.00;69.80;;;;;;5095892;28;20463;-72
2021/03/20 04:34:48;;;;;;;3.73;2.50;;;5.00;70.00;;;;;;5095851;28;20420;-72
2021/03/20 04:37:18;;;;;;;4.63;3.20;;;5.00;69.90;;;;;;5095568;28;20439;-72
2021/03/20 04:39:48;;;;;;;4.17;2.90;;;5.00;69.70;;;;;;5094811;28;20841;-72
2021/03/20 04:42:19;;;;;;;3.10;2.80;;;5.00;69.40;;;;;;5095391;28;20824;-72
2021/03/20 04:44:46;;;;;;;4.43;3.67;;;4.90;69.10;;;;;;5095902;28;20468;-72
2021/03/20 04:47:17;;;;;;;4.33;3.30;;;4.90;69.10;;;;;;5095274;28;20439;-72
2021/03/20 04:49:49;;;;;;;3.47;3.17;;;4.90;68.80;;;;;;5095249;28;20890;-72
2021/03/20 04:52:19;;;;;;;3.70;3.10;;;4.90;68.10;;;;;;5095749;28;20464;-72
2021/03/20 04:54:46;;;;;;;3.27;3.00;;;4.80;67.90;;;;;;5095430;28;20424;-72
2021/03/20 04:57:22;;;;;;;3.80;2.90;;;4.80;67.70;;;;;;5094806;28;20960;-72
2021/03/20 05:00:05;;;;;;;2.53;2.33;;;4.70;67.70;;;;;;5095147;28;20428;-72
2021/03/20 05:02:36;;;;;;;7.57;3.10;;;4.70;67.80;;;;;;5095067;28;20439;-72
2021/03/20 05:05:08;;;;;;;4.23;2.87;;;4.60;67.90;;;;;;5094810;28;20537;-72
2021/03/20 05:07:36;;;;;;;3.87;3.20;;;4.60;68.30;;;;;;5094953;28;20432;-72
2021/03/20 05:10:09;;;;;;;4.00;3.17;;;4.60;68.10;;;;;;5094764;28;20459;-72
2021/03/20 05:12:35;;;;;;;3.10;2.80;;;4.50;68.00;;;;;;5094898;28;20796;-72
2021/03/20 05:15:06;;;;;;;3.33;2.90;;;4.50;68.40;;;;;;5094747;28;20439;-72
2021/03/20 05:17:32;;;;;;;3.20;2.70;;;4.50;68.20;;;;;;5094296;28;20440;-72
2021/03/20 05:19:59;;;;;;;4.57;3.00;;;4.50;68.10;;;;;;5094620;28;20443;-72
2021/03/20 05:22:28;;;;;;;3.43;2.77;;;4.40;68.00;;;;;;5094634;28;20450;-72
2021/03/20 05:24:56;;;;;;;5.03;3.00;;;4.40;67.90;;;;;;5094517;28;20489;-72
2021/03/20 05:27:24;;;;;;;7.87;3.33;;;4.40;67.90;;;;;;5094553;28;20862;-72
2021/03/20 05:29:50;;;;;;;5.47;3.00;;;4.40;67.90;;;;;;5094522;28;20521;-72
2021/03/20 05:32:24;;;;;;;4.90;3.23;;;4.40;68.10;;;;;;5094468;28;20560;-73
2021/03/20 05:34:51;;;;;;;4.37;3.33;;;4.40;68.00;;;;;;5094447;28;20431;-72
2021/03/20 05:37:24;;;;;;;6.00;3.10;;;4.40;67.90;;;;;;5094336;28;20443;-72
2021/03/20 05:39:51;;;;;;;6.33;2.60;;;4.40;67.80;;;;;;5094387;28;20432;-72
2021/03/20 05:42:34;;;;;;;6.40;3.10;;;4.30;67.70;;;;;;5093965;28;20451;-72
2021/03/20 05:45:12;;;;;;;3.43;2.73;;;4.30;67.60;;;;;;5093869;28;20930;-72
2021/03/20 05:47:55;;;;;;;4.03;2.70;;;4.30;67.60;;;;;;5094243;28;20480;-72
2021/03/20 05:50:45;;;;;;;3.77;3.17;;;4.30;67.80;;;;;;5093491;28;20827;-72
2021/03/20 05:53:34;;;;;;;3.27;2.83;;;4.20;68.00;;;;;;5083632;28;20448;-72
2021/03/20 05:56:09;;;;;;;6.20;2.87;;;4.20;67.90;;;;;;5094098;28;20424;-72
2021/03/20 05:58:49;;;;;;;4.97;3.60;;;4.20;68.10;;;;;;5094053;28;20430;-72
2021/03/20 06:01:35;;;;;;;3.97;3.20;;;4.20;68.20;;;;;;5093950;28;20466;-72
2021/03/20 06:04:18;;;;;;;3.60;2.87;;;4.20;69.00;;;;;;5093664;28;20428;-72
2021/03/20 06:06:57;;;;;;;2.97;2.60;;;4.20;68.30;;;;;;5093584;28;20463;-72
2021/03/20 06:09:34;;;;;;;3.67;3.00;;;4.20;68.10;;;;;;5093935;28;20446;-72
2021/03/20 06:12:13;;;;;;;3.70;3.10;;;4.20;67.80;;;;;;5093799;28;20470;-72
2021/03/20 06:15:10;;;;;;;2.83;2.53;;;4.20;67.90;;;;;;5093869;28;20431;-72
2021/03/20 06:17:57;;;;;;;5.00;2.47;;;4.20;67.70;;;;;;5093630;28;20451;-72
2021/03/20 06:20:33;;;;;;;4.17;3.20;;;4.20;67.90;;;;;;5093608;28;20988;-72
2021/03/20 06:23:26;;;;;;;4.57;2.67;;;4.20;67.80;;;;;;5093756;28;20427;-72
2021/03/20 06:26:07;;;;;;;2.37;2.17;;;4.20;68.20;;;;;;5093620;28;20463;-72
2021/03/20 06:28:39;;;;;;;4.03;3.03;;;4.20;68.00;;;;;;5093867;28;20877;-72
2021/03/20 06:31:13;;;;;;;5.23;3.37;;;4.30;67.60;;;;;;5093578;28;20467;-72
2021/03/20 06:33:45;;;;;;;6.40;3.30;;;4.30;67.90;;;;;;5093863;28;20435;-72
2021/03/20 06:36:18;;;;;;;3.60;2.70;;;4.30;68.10;;;;;;5093605;28;20431;-72
2021/03/20 06:38:48;;;;;;;5.37;2.73;;;4.30;67.80;;;;;;5093574;28;20424;-73
2021/03/20 06:41:20;;;;;;;3.27;2.90;;;4.30;67.60;;;;;;5093454;28;20467;-72
2021/03/20 06:43:52;;;;;;;4.07;2.60;;;4.30;67.70;;;;;;5094088;28;20431;-72
2021/03/20 06:46:21;;;;;;;3.10;2.70;;;4.30;67.50;;;;;;5093434;28;20464;-73
2021/03/20 06:48:47;;;;;;;3.60;3.20;;;4.40;67.70;;;;;;5093423;28;20443;-72
2021/03/20 06:51:14;;;;;;;5.53;3.53;;;4.40;67.70;;;;;;5093661;28;20464;-73
2021/03/20 06:53:49;;;;;;;4.67;3.00;;;4.40;67.90;;;;;;5093394;28;20447;-72
2021/03/20 06:56:17;;;;;;;4.00;2.60;;;4.40;67.80;;;;;;5093696;28;20423;-72
2021/03/20 06:58:44;;;;;;;3.93;3.20;;;4.40;68.60;;;;;;5093329;28;20465;-72
2021/03/20 07:01:29;;;;;;;4.07;3.50;;;4.50;67.70;;;;;;5093272;28;20459;-72
2021/03/20 07:04:33;;;;;;;5.33;3.23;;;4.50;67.50;;;;;;5097132;28;20428;-72
2021/03/20 07:07:40;;;;;;;3.33;2.87;;;4.50;67.10;;;;;;5096916;28;20965;-72
2021/03/20 07:10:11;;;;;;;6.13;3.30;;;4.50;66.90;;;;;;5066414;28;20451;-71
2021/03/20 07:13:08;;;;;;;5.97;3.03;;;4.50;66.70;;;;;;5097217;28;20447;-73
2021/03/20 07:15:35;;;;;;;3.10;2.80;;;4.60;66.30;;;;;;5097126;28;20420;-70
2021/03/20 07:18:29;;;;;;;4.33;3.47;;;4.60;66.00;;;;;;5096670;28;20958;-71
2021/03/20 07:20:55;;;;;;;6.27;4.20;;;4.70;66.00;;;;;;5097203;28;20463;-71
2021/03/20 07:23:22;;;;;;;5.70;3.00;;;4.70;65.70;;;;;;5096919;28;20447;-72
2021/03/20 07:25:51;;;;;;;5.20;3.37;;;4.80;65.80;;;;;;5097688;28;20533;-71
2021/03/20 07:28:20;;;;;;;6.37;3.50;;;4.90;65.80;;;;;;5096775;28;20811;-71
2021/03/20 07:30:52;;;;;;;3.50;2.90;;;5.00;65.40;;;;;;5096983;28;20467;-71
2021/03/20 07:33:26;;;;;;;3.10;2.90;;;5.00;65.10;;;;;;5096921;28;20424;-71
2021/03/20 07:35:54;;;;;;;3.00;2.70;;;5.10;65.30;;;;;;5096450;28;20435;-71
2021/03/20 07:38:24;;;;;;;7.50;3.40;;;5.10;63.70;;;;;;5096687;28;20890;-71
2021/03/20 07:41:03;;;;;;;4.63;3.23;;;5.20;63.90;;;;;;5096589;28;20460;-71
2021/03/20 07:43:29;;;;;;;3.67;3.20;;;5.30;64.80;;;;;;5096557;28;20434;-71
2021/03/20 07:46:08;;;;;;;5.63;3.53;;;5.30;64.50;;;;;;5096039;28;21020;-71
2021/03/20 07:48:35;;;;;;;3.53;3.20;;;5.40;63.90;;;;;;5096685;28;20428;-71
2021/03/20 07:51:04;;;;;;;5.17;3.00;;;5.40;63.60;;;;;;5096357;28;20471;-71
2021/03/20 07:53:31;;;;;;;7.07;3.87;;;5.40;62.90;;;;;;5097133;28;20452;-71
2021/03/20 07:56:00;;;;;;;5.17;3.97;;;5.40;62.40;;;;;;5095983;28;20922;-71
2021/03/20 07:58:32;;;;;;;5.10;3.57;;;5.40;62.70;;;;;;5096329;28;20785;-71
2021/03/20 08:01:01;;;;;;;3.40;3.00;;;5.40;62.60;;;;;;5096301;28;20474;-71
2021/03/20 08:03:29;;;;;;;4.33;3.10;;;5.30;62.60;;;;;;5096235;28;20492;-71
2021/03/20 08:06:11;;;;;;;5.83;3.50;;;5.40;63.50;;;;;;5095768;28;20480;-71
2021/03/20 08:08:38;;;;;;;5.93;3.40;;;5.50;64.00;;;;;;5096162;28;20435;-71
2021/03/20 08:11:05;;;;;;;3.37;3.07;;;5.60;63.60;;;;;;5095972;28;20879;-71
2021/03/20 08:13:43;;;;;;;5.03;3.20;;;5.60;62.60;;;;;;5094839;28;20790;-71
2021/03/20 08:16:09;;;;;;;4.50;3.10;;;5.70;62.80;;;;;;5096029;28;20424;-72
2021/03/20 08:18:38;;;;;;;5.37;3.50;;;5.80;61.90;;;;;;5095555;28;20439;-72
2021/03/20 08:21:38;;;;;;;3.90;3.50;;;5.90;61.40;;;;;;5095768;28;20468;-71
2021/03/20 08:24:21;;;;;;;3.10;2.80;;;6.00;61.40;;;;;;5095869;28;20439;-70
2021/03/20 08:26:54;;;;;;;3.57;2.87;;;6.10;60.80;;;;;;5095734;28;20466;-70
2021/03/20 08:29:47;;;;;;;3.80;3.00;;;6.30;61.20;;;;;;5095770;28;20492;-71
2021/03/20 08:32:24;;;;;;;3.87;3.40;;;6.40;61.30;;;;;;5095327;28;20992;-72
2021/03/20 08:35:02;;;;;;;3.90;2.90;;;6.70;61.20;;;;;;5095755;28;20449;-72
2021/03/20 08:37:53;;;;;;;5.53;3.40;;;6.80;59.90;;;;;;5096470;28;20478;-72
2021/03/20 08:40:53;;;;;;;6.90;3.30;;;6.90;59.10;;;;;;5095461;28;20456;-71
2021/03/20 08:43:51;;;;;;;3.80;2.30;;;7.00;59.20;;;;;;5095482;28;20459;-71
2021/03/20 08:46:48;;;;;;;3.70;2.97;;;7.10;63.00;;;;;;5095552;28;20459;-72
2021/03/20 08:49:23;;;;;;;4.30;3.70;;;7.30;59.30;;;;;;5095348;28;20432;-72
2021/03/20 08:51:59;;;;;;;5.43;3.10;;;7.30;57.90;;;;;;5095244;28;20455;-71
2021/03/20 08:54:45;;;;;;;3.67;2.90;;;7.40;57.10;;;;;;5095830;28;20428;-71
2021/03/20 08:57:18;;;;;;;4.83;3.30;;;7.40;56.60;;;;;;5094939;28;20894;-71
2021/03/20 08:59:48;;;;;;;4.20;2.90;;;7.50;55.60;;;;;;5095055;28;20481;-71
2021/03/20 09:02:35;;;;;;;6.03;3.80;;;7.50;55.90;;;;;;5095001;28;20471;-71
2021/03/20 09:05:09;;;;;;;5.37;2.83;;;7.60;56.50;;;;;;5094875;28;20489;-71
2021/03/20 09:07:41;;;;;;;6.20;3.43;;;7.70;55.10;;;;;;5094695;28;20432;-71
2021/03/20 09:10:16;;;;;;;4.00;2.60;;;7.70;54.90;;;;;;5094878;28;20435;-71
2021/03/20 09:12:47;;;;;;;6.07;3.30;;;7.70;54.80;;;;;;5095038;28;20449;-71
2021/03/20 09:15:20;;;;;;;3.50;2.57;;;7.70;54.60;;;;;;5094783;28;20420;-71
2021/03/20 09:17:47;;;;;;;3.87;2.67;;;7.70;54.00;;;;;;5094808;28;20428;-71
2021/03/20 09:20:24;;;;;;;2.50;2.00;;;7.60;53.00;;;;;;5094608;28;20443;-71
2021/03/20 09:22:51;;;;;;;4.10;2.53;;;7.60;52.40;;;;;;5094348;28;20428;-71
2021/03/20 09:25:29;;;;;;;3.27;2.23;;;7.70;51.80;;;;;;5094255;28;20476;-71
2021/03/20 09:28:10;;;;;;;2.93;2.23;;;7.80;51.50;;;;;;5094542;28;20477;-71
2021/03/20 09:30:39;;;;;;;2.90;2.70;;;8.00;51.30;;;;;;5094485;28;20471;-71
2021/03/20 09:33:15;;;;;;;2.60;2.20;;;8.10;51.10;;;;;;5094489;28;20435;-72
2021/03/20 09:35:45;;;;;;;2.03;1.90;;;8.20;51.40;;;;;;5094440;28;20419;-71
2021/03/20 09:38:12;;;;;;;2.67;2.27;;;8.30;49.90;;;;;;5094394;28;20440;-71
2021/03/20 09:40:58;;;;;;;2.10;1.73;;;8.40;49.70;;;;;;5094220;28;20471;-71
2021/03/20 09:43:44;;;;;;;3.27;2.10;;;8.60;49.30;;;;;;5094283;28;20444;-71
2021/03/20 09:46:51;;;;;;;3.33;1.93;;;8.70;48.00;;;;;;5094199;28;20464;-71
2021/03/20 09:49:54;;;;;;;5.03;1.67;;;8.90;44.70;;;;;;5031645;28;20450;-71
2021/03/20 09:52:38;;;;;;;2.03;1.80;;;9.10;44.40;;;;;;5094166;28;20476;-71
2021/03/20 09:55:34;;;;;;;1.90;1.70;;;9.30;42.60;;;;;;5094116;28;20424;-71
2021/03/20 09:58:03;;;;;;;2.83;2.13;;;9.50;42.60;;;;;;5093861;28;20435;-71
2021/03/20 10:01:08;;;;;;;3.37;2.50;;;9.70;44.10;;;;;;5093886;28;20467;-72
2021/03/20 10:03:53;;;;;;;4.50;2.40;;;10.10;43.20;;;;;;5094020;28;20416;-72
2021/03/20 10:06:28;;;;;;;3.50;2.53;;;10.40;41.70;;;;;;5091312;28;20911;-73
2021/03/20 10:09:23;;;;;;;2.90;1.73;;;10.70;40.30;;;;;;5093964;28;20434;-71
2021/03/20 10:12:09;;;;;;;2.47;2.10;;;11.10;38.30;;;;;;5092574;28;20883;-74
2021/03/20 10:14:51;;;;;;;3.83;2.80;;;11.50;35.20;;;;;;5093837;28;20481;-71
2021/03/20 10:17:21;;;;;;;4.33;2.03;;;11.60;35.40;;;;;;5093966;28;20477;-72
2021/03/20 10:19:50;;;;;;;4.40;1.60;;;11.80;35.30;;;;;;5093641;28;20443;-72
2021/03/20 10:22:24;;;;;;;2.30;1.87;;;12.00;32.60;;;;;;5093623;28;20489;-71
2021/03/20 10:24:51;;;;;;;2.60;1.80;;;12.30;32.20;;;;;;5093628;28;20862;-71
2021/03/20 10:27:23;;;;;;;4.30;1.87;;;12.60;32.60;;;;;;5092478;28;20466;-71
2021/03/20 10:29:50;;;;;;;2.40;2.10;;;12.90;32.00;;;;;;5093707;28;20424;-71
2021/03/20 10:32:19;;;;;;;3.40;2.50;;;13.00;30.90;;;;;;5093422;28;20463;-72
2021/03/20 10:34:50;;;;;;;4.57;2.03;;;13.20;32.40;;;;;;5093489;28;20440;-71
2021/03/20 10:37:17;;;;;;;2.33;2.13;;;13.40;31.40;;;;;;5096956;28;20432;-71
2021/03/20 10:39:45;;;;;;;2.57;2.30;;;13.60;30.40;;;;;;5100187;28;20443;-71
2021/03/20 10:42:22;;;;;;;2.43;2.03;;;13.60;28.60;;;;;;5100198;28;20468;-71
2021/03/20 10:44:56;;;;;;;3.53;2.10;;;13.60;30.80;;;;;;5100210;28;20506;-71
2021/03/20 10:47:28;;;;;;;3.30;2.10;;;13.90;30.00;;;;;;5100190;28;20488;-71
2021/03/20 10:50:01;;;;;;;1.93;1.70;;;14.10;30.40;;;;;;5100247;28;20838;-71
2021/03/20 10:52:34;;;;;;;3.10;1.83;;;14.10;28.40;;;;;;5100432;28;20523;-71
2021/03/20 10:55:10;;;;;;;3.43;2.63;;;13.60;27.60;;;;;;5100397;28;20428;-71
2021/03/20 10:57:37;;;;;;;3.97;2.40;;;13.70;29.60;;;;;;5100075;28;20423;-71
2021/03/20 11:00:18;;;;;;;3.37;2.00;;;14.00;30.20;;;;;;5099959;28;20447;-71
2021/03/20 11:02:44;;;;;;;2.23;2.03;;;14.20;29.10;;;;;;5100075;28;20431;-72
2021/03/20 11:05:23;;;;;;;3.90;2.50;;;14.50;29.60;;;;;;5099784;28;20837;-71
2021/03/20 11:07:52;;;;;;;5.70;3.13;;;14.70;28.90;;;;;;5099697;28;20440;-71
2021/03/20 11:10:27;;;;;;;6.20;2.80;;;14.80;29.00;;;;;;5099932;28;20466;-71
2021/03/20 11:12:54;;;;;;;4.70;3.60;;;14.80;29.40;;;;;;5099720;28;20438;-71
2021/03/20 11:15:26;;;;;;;4.50;2.90;;;14.90;28.70;;;;;;5099961;28;20447;-71
2021/03/20 11:17:55;;;;;;;5.17;3.50;;;14.90;29.40;;;;;;5100015;28;20432;-72
2021/03/20 11:20:27;;;;;;;4.00;2.63;;;15.10;29.20;;;;;;5099876;28;20489;-70
2021/03/20 11:22:54;;;;;;;4.70;2.50;;;15.30;29.10;;;;;;5099862;28;20431;-70
2021/03/20 11:25:31;;;;;;;6.23;3.23;;;15.40;28.10;;;;;;5099741;28;20483;-71
2021/03/20 11:28:00;;;;;;;7.43;3.00;;;15.40;28.10;;;;;;5099564;28;21035;-72
2021/03/20 11:30:30;;;;;;;5.20;3.77;;;15.40;27.70;;;;;;5099349;28;20490;-72
2021/03/20 11:33:01;;;;;;;11.20;3.30;;;15.40;28.20;;;;;;5099864;28;20428;-71
2021/03/20 11:35:30;;;;;;;5.80;2.93;;;15.30;28.30;;;;;;5099740;28;20427;-71
2021/03/20 11:38:00;;;;;;;4.50;3.30;;;15.50;27.70;;;;;;5099672;28;20496;-70
2021/03/20 11:40:30;;;;;;;5.70;4.07;;;15.90;27.30;;;;;;5099564;28;20463;-70
2021/03/20 11:42:59;;;;;;;4.30;3.50;;;16.20;26.80;;;;;;5099477;28;20454;-71
2021/03/20 11:45:29;;;;;;;6.37;3.90;;;16.50;26.40;;;;;;5099444;28;20471;-71
2021/03/20 11:47:58;;;;;;;6.03;3.80;;;16.90;26.40;;;;;;5099531;28;20467;-71
2021/03/20 11:50:27;;;;;;;7.90;4.00;;;17.40;26.50;;;;;;5096995;28;20459;-70
2021/03/20 11:52:57;;;;;;;4.40;3.07;;;17.70;25.30;;;;;;5096574;28;20454;-70
2021/03/20 11:55:33;;;;;;;12.57;4.00;;;18.20;24.80;;;;;;5096458;28;20443;-70
2021/03/20 11:58:00;;;;;;;5.03;3.23;;;18.90;25.20;;;;;;5096367;28;20436;-71
2021/03/20 12:00:35;;;;;;;6.20;3.87;;;19.40;21.90;;;;;;5095869;28;20973;-71
2021/03/20 12:03:03;;;;;;;4.67;3.40;;;19.70;21.90;;;;;;5096551;28;20435;-70
2021/03/20 12:05:32;;;;;;;7.37;3.50;;;19.80;21.60;;;;;;5095828;28;20574;-70
2021/03/20 12:08:28;;;;;;;6.73;3.37;;;20.30;23.00;;;;;;5096155;28;20434;-71
2021/03/20 12:10:59;;;;;;;4.07;3.13;;;21.00;21.80;;;;;;5096343;28;20460;-70
2021/03/20 12:13:40;;;;;;;5.70;3.63;;;21.30;20.50;;;;;;5096141;28;20462;-70
2021/03/20 12:16:07;;;;;;;3.73;3.07;;;22.00;21.10;;;;;;5095994;28;20443;-70
2021/03/20 12:18:34;;;;;;;4.97;3.53;;;22.70;21.10;;;;;;5095858;28;20424;-70
2021/03/20 12:21:05;;;;;;;5.10;3.17;;;23.30;19.30;;;;;;5095796;28;20470;-70
2021/03/20 12:23:33;;;;;;;5.60;2.87;;;23.90;18.60;;;;;;5095777;28;20444;-70
2021/03/20 12:26:00;;;;;;;6.50;2.37;;;24.10;16.90;;;;;;5095619;28;20480;-70
2021/03/20 12:28:33;;;;;;;2.87;2.50;;;24.30;18.00;;;;;;5095718;28;20497;-70
2021/03/20 12:31:26;;;;;;;3.77;2.70;;;24.90;18.20;;;;;;5095578;28;20502;-71
2021/03/20 12:33:54;;;;;;;7.23;3.10;;;25.40;16.40;;;;;;5095600;28;20432;-71
2021/03/20 12:36:33;;;;;;;2.53;2.20;;;26.10;17.30;;;;;;5095581;28;20439;-70
2021/03/20 12:39:00;;;;;;;6.40;3.17;;;26.50;16.60;;;;;;5095615;28;20431;-70
2021/03/20 12:41:29;;;;;;;9.50;3.00;;;27.00;16.70;;;;;;5095627;28;20460;-70
2021/03/20 12:44:18;;;;;;;2.40;2.20;;;27.60;16.30;;;;;;5095394;28;20444;-71
2021/03/20 12:46:47;;;;;;;3.27;2.97;;;28.00;15.60;;;;;;5090979;28;20480;-70
2021/03/20 12:49:17;;;;;;;3.27;2.00;;;28.20;15.00;;;;;;5095306;28;20448;-71
2021/03/20 12:51:44;;;;;;;2.07;1.90;;;28.20;14.20;;;;;;5095570;28;20467;-70
2021/03/20 12:54:22;;;;;;;3.20;2.60;;;28.40;14.40;;;;;;5095470;28;20451;-71
2021/03/20 12:56:50;;;;;;;9.00;2.80;;;28.20;12.50;;;;;;5095232;28;20568;-70
2021/03/20 12:59:16;;;;;;;4.23;2.20;;;27.00;13.80;;;;;;5095887;28;20435;-71
2021/03/20 13:01:42;;;;;;;6.73;2.83;;;26.50;15.60;;;;;;5094213;28;20974;-71
2021/03/20 13:04:13;;;;;;;3.03;2.73;;;26.40;16.50;;;;;;5094729;28;20926;-70
2021/03/20 13:06:40;;;;;;;4.63;2.73;;;26.60;16.00;;;;;;5094775;28;21020;-71
2021/03/20 13:09:06;;;;;;;3.17;2.73;;;26.50;15.60;;;;;;5094680;28;20860;-71
2021/03/20 13:11:32;;;;;;;3.77;2.37;;;26.10;14.60;;;;;;5095123;28;20861;-70
2021/03/20 13:14:00;;;;;;;2.50;2.30;;;26.10;15.90;;;;;;5095183;28;20446;-71
2021/03/20 13:16:26;;;;;;;3.23;1.70;;;26.30;15.60;;;;;;5094761;28;20446;-71
2021/03/20 13:18:52;;;;;;;4.53;2.50;;;26.60;15.10;;;;;;5094745;28;20806;-71
2021/03/20 13:21:20;;;;;;;5.17;2.20;;;26.80;15.50;;;;;;5094913;28;20460;-71
2021/03/20 13:23:46;;;;;;;3.10;2.77;;;27.10;13.60;;;;;;5094715;28;20443;-71
2021/03/20 13:26:13;;;;;;;2.27;2.07;;;27.30;14.90;;;;;;5094558;28;20486;-71
2021/03/20 13:28:39;;;;;;;4.95;2.03;;;27.70;14.80;;;;;;5094710;28;20444;-71